Time;durP1;ratioP1;P1;durP2;ratioP2;P2;SDS_P1;SDS_P2;PMS_P1;PMS_P2;Temp;Humidity;BMP_temperature;BMP_pressure;BME280_temperature;BME280_humidity;BME280_pressure;Samples;Min_cycle;Max_cycle;Signal;HPM_P1;HPM_P2
2023/03/31 00:01:40;;;;;;;3.60;1.00;;;;;;;;;;5058570;28;20559;-73
2023/03/31 00:04:07;;;;;;;1.63;1.07;;;;;;;;;;5054586;28;20713;-73
2023/03/31 00:06:36;;;;;;;1.37;1.10;;;;;;;;;;5059721;28;20202;-73
2023/03/31 00:09:04;;;;;;;1.80;1.10;;;;;;;;;;5053566;28;20198;-73
2023/03/31 00:11:32;;;;;;;2.07;1.10;;;;;;;;;;5059772;28;20222;-73
2023/03/31 00:13:58;;;;;;;2.17;1.20;;;;;;;;;;5059444;28;20206;-73
2023/03/31 00:16:25;;;;;;;1.10;1.00;;;;;;;;;;5061460;28;20284;-73
2023/03/31 00:18:51;;;;;;;1.20;1.00;;;;;;;;;;5042902;28;20213;-73
2023/03/31 00:21:28;;;;;;;1.50;1.07;;;;;;;;;;5057222;28;20252;-72
2023/03/31 00:23:56;;;;;;;2.30;1.10;;;;;;;;;;5061682;28;20198;-73
2023/03/31 00:26:22;;;;;;;1.77;1.03;;;;;;;;;;5053725;28;20201;-73
2023/03/31 00:28:50;;;;;;;0.90;0.90;;;;;;;;;;5041273;28;20198;-73
2023/03/31 00:31:16;;;;;;;3.00;1.10;;;;;;;;;;5043197;28;20215;-73
2023/03/31 00:33:42;;;;;;;1.93;1.00;;;;;;;;;;5043955;28;20293;-73
2023/03/31 00:36:09;;;;;;;1.37;1.10;;;;;;;;;;5059604;28;20464;-73
2023/03/31 00:38:36;;;;;;;1.13;1.03;;;;;;;;;;5038891;28;20206;-73
2023/03/31 00:41:02;;;;;;;1.23;0.97;;;;;;;;;;5041248;28;20198;-72
2023/03/31 00:43:29;;;;;;;2.07;1.10;;;;;;;;;;5041971;28;20306;-73
2023/03/31 00:46:00;;;;;;;1.30;0.90;;;;;;;;;;5061522;28;20245;-73
2023/03/31 00:48:26;;;;;;;1.43;1.13;;;;;;;;;;5062734;28;20679;-73
2023/03/31 00:50:54;;;;;;;1.10;1.00;;;;;;;;;;5064087;28;20201;-73
2023/03/31 00:53:22;;;;;;;1.30;0.90;;;;;;;;;;5049006;28;20195;-73
2023/03/31 00:55:50;;;;;;;1.20;1.07;;;;;;;;;;5047812;28;20195;-73
2023/03/31 00:58:19;;;;;;;1.30;1.20;;;;;;;;;;5065769;28;20198;-72
2023/03/31 01:00:46;;;;;;;1.73;1.23;;;;;;;;;;5065005;28;20213;-73
2023/03/31 01:03:14;;;;;;;1.70;1.30;;;;;;;;;;5067347;28;20778;-73
2023/03/31 01:05:43;;;;;;;1.60;0.90;;;;;;;;;;5068206;28;20216;-74
2023/03/31 01:08:09;;;;;;;1.47;0.93;;;;;;;;;;5051771;28;20709;-73
2023/03/31 01:10:40;;;;;;;1.20;1.10;;;;;;;;;;5066675;28;20248;-72
2023/03/31 01:13:08;;;;;;;0.97;0.90;;;;;;;;;;5049481;28;20250;-73
2023/03/31 01:15:34;;;;;;;1.33;1.10;;;;;;;;;;5047313;28;20207;-73
2023/03/31 01:18:02;;;;;;;1.30;1.20;;;;;;;;;;5067403;28;20206;-73
2023/03/31 01:20:33;;;;;;;2.20;1.10;;;;;;;;;;5065087;28;20194;-73
2023/03/31 01:23:14;;;;;;;1.23;1.13;;;;;;;;;;5045363;28;20313;-72
2023/03/31 01:26:00;;;;;;;1.50;1.20;;;;;;;;;;5065915;28;20214;-73
2023/03/31 01:28:33;;;;;;;5.27;1.30;;;;;;;;;;5048357;28;20588;-73
2023/03/31 01:31:09;;;;;;;2.60;1.30;;;;;;;;;;5049385;28;20214;-73
2023/03/31 01:33:51;;;;;;;1.90;1.40;;;;;;;;;;5064857;28;20206;-72
2023/03/31 01:36:50;;;;;;;3.30;1.03;;;;;;;;;;5061439;28;20214;-72
2023/03/31 01:39:33;;;;;;;2.87;1.20;;;;;;;;;;5064546;28;20203;-72
2023/03/31 01:42:06;;;;;;;2.50;1.17;;;;;;;;;;5067117;28;20414;-73
2023/03/31 01:44:36;;;;;;;1.47;1.07;;;;;;;;;;5049241;28;20213;-73
2023/03/31 01:47:06;;;;;;;2.10;1.20;;;;;;;;;;5065897;28;20290;-73
2023/03/31 01:49:39;;;;;;;1.17;1.00;;;;;;;;;;5059130;28;20660;-73
2023/03/31 01:52:07;;;;;;;2.90;1.00;;;;;;;;;;5062728;28;20251;-73
2023/03/31 01:54:38;;;;;;;5.23;1.33;;;;;;;;;;5045688;28;20205;-73
2023/03/31 01:57:09;;;;;;;1.20;1.10;;;;;;;;;;5065446;28;20669;-73
2023/03/31 01:59:39;;;;;;;1.23;1.00;;;;;;;;;;5042205;28;20249;-73
2023/03/31 02:02:08;;;;;;;2.23;1.37;;;;;;;;;;5044274;28;20227;-73
2023/03/31 02:04:36;;;;;;;2.07;1.20;;;;;;;;;;5063149;28;20598;-73
2023/03/31 02:07:04;;;;;;;1.40;1.30;;;;;;;;;;5045647;28;20210;-73
2023/03/31 02:09:34;;;;;;;1.60;1.10;;;;;;;;;;5042297;28;20256;-73
2023/03/31 02:12:03;;;;;;;1.20;1.10;;;;;;;;;;5040892;28;20313;-73
2023/03/31 02:14:33;;;;;;;1.53;1.27;;;;;;;;;;5044396;28;20233;-73
2023/03/31 02:17:02;;;;;;;4.40;1.30;;;;;;;;;;5062391;28;20196;-73
2023/03/31 02:19:31;;;;;;;2.10;1.20;;;;;;;;;;5060419;28;20841;-73
2023/03/31 02:21:58;;;;;;;3.10;1.30;;;;;;;;;;5043337;28;20230;-73
2023/03/31 02:24:26;;;;;;;2.73;1.50;;;;;;;;;;5057995;28;20202;-73
2023/03/31 02:26:54;;;;;;;1.43;1.27;;;;;;;;;;5043652;28;20688;-73
2023/03/31 02:29:20;;;;;;;3.53;1.50;;;;;;;;;;5047477;28;20210;-73
2023/03/31 02:31:52;;;;;;;1.40;1.30;;;;;;;;;;5043160;28;20236;-73
2023/03/31 02:34:18;;;;;;;3.00;1.50;;;;;;;;;;5043466;28;20446;-73
2023/03/31 02:36:45;;;;;;;1.60;1.20;;;;;;;;;;5060871;28;20277;-73
2023/03/31 02:39:15;;;;;;;5.43;1.60;;;;;;;;;;5061021;28;20643;-73
2023/03/31 02:41:42;;;;;;;2.93;1.40;;;;;;;;;;5062115;28;20216;-73
2023/03/31 02:44:08;;;;;;;3.43;1.37;;;;;;;;;;5062926;28;20886;-73
2023/03/31 02:46:35;;;;;;;5.60;1.33;;;;;;;;;;5056410;28;20215;-73
2023/03/31 02:49:04;;;;;;;2.60;1.30;;;;;;;;;;5043117;28;20543;-73
2023/03/31 02:52:02;;;;;;;4.00;1.63;;;;;;;;;;5058124;28;20275;-73
2023/03/31 02:54:39;;;;;;;1.00;0.83;;;;;;;;;;5042263;28;20287;-73
2023/03/31 02:57:13;;;;;;;2.40;1.20;;;;;;;;;;5045908;28;20195;-73
2023/03/31 02:59:46;;;;;;;1.60;1.20;;;;;;;;;;5044050;28;20666;-73
2023/03/31 03:02:16;;;;;;;2.00;1.13;;;;;;;;;;5047004;28;20244;-73
2023/03/31 03:04:53;;;;;;;2.63;1.30;;;;;;;;;;5043300;28;20201;-73
2023/03/31 03:07:25;;;;;;;1.03;0.93;;;;;;;;;;5043863;28;20201;-73
2023/03/31 03:09:55;;;;;;;3.40;1.50;;;;;;;;;;5042651;28;20196;-73
2023/03/31 03:12:24;;;;;;;2.80;1.40;;;;;;;;;;5063585;28;20466;-73
2023/03/31 03:14:53;;;;;;;2.07;1.03;;;;;;;;;;5056285;28;20209;-73
2023/03/31 03:17:22;;;;;;;1.47;1.20;;;;;;;;;;5046046;28;20199;-73
2023/03/31 03:19:53;;;;;;;3.60;1.20;;;;;;;;;;5058174;28;20199;-73
2023/03/31 03:22:19;;;;;;;1.50;1.27;;;;;;;;;;5057524;28;20563;-73
2023/03/31 03:24:45;;;;;;;2.70;1.43;;;;;;;;;;5057655;28;20241;-73
2023/03/31 03:27:12;;;;;;;5.47;1.67;;;;;;;;;;5056870;28;20260;-73
2023/03/31 03:29:38;;;;;;;3.93;1.50;;;;;;;;;;5058387;28;20209;-73
2023/03/31 03:32:04;;;;;;;2.93;1.33;;;;;;;;;;5058222;28;20898;-73
2023/03/31 03:34:30;;;;;;;1.90;1.13;;;;;;;;;;5058562;28;20197;-73
2023/03/31 03:36:58;;;;;;;1.90;1.20;;;;;;;;;;5058015;28;20208;-73
2023/03/31 03:39:24;;;;;;;2.83;1.40;;;;;;;;;;5058119;28;20484;-73
2023/03/31 03:41:52;;;;;;;2.83;1.13;;;;;;;;;;5060736;28;20224;-73
2023/03/31 03:44:18;;;;;;;3.07;1.37;;;;;;;;;;5061495;28;20199;-73
2023/03/31 03:46:44;;;;;;;1.70;1.37;;;;;;;;;;5055561;28;20219;-73
2023/03/31 03:49:11;;;;;;;3.43;1.60;;;;;;;;;;5056657;28;20678;-73
2023/03/31 03:51:37;;;;;;;2.40;1.33;;;;;;;;;;5058020;28;20330;-73
2023/03/31 03:54:05;;;;;;;3.63;1.30;;;;;;;;;;5045192;28;20213;-73
2023/03/31 03:56:31;;;;;;;4.70;1.47;;;;;;;;;;5059149;28;20555;-73
2023/03/31 03:58:57;;;;;;;3.50;1.10;;;;;;;;;;5059063;28;20203;-73
2023/03/31 04:01:23;;;;;;;2.73;1.50;;;;;;;;;;5054549;28;20587;-73
2023/03/31 04:03:49;;;;;;;2.07;1.10;;;;;;;;;;5053318;28;20206;-73
2023/03/31 04:06:16;;;;;;;1.53;1.00;;;;;;;;;;5056718;28;20221;-73
2023/03/31 04:08:42;;;;;;;1.40;1.30;;;;;;;;;;5056389;28;20675;-73
2023/03/31 04:11:13;;;;;;;2.07;1.43;;;;;;;;;;5058931;28;20261;-73
2023/03/31 04:13:39;;;;;;;1.63;1.10;;;;;;;;;;5056959;28;20274;-73
2023/03/31 04:16:06;;;;;;;3.37;1.33;;;;;;;;;;5052262;28;20214;-73
2023/03/31 04:18:35;;;;;;;2.37;1.40;;;;;;;;;;5062037;28;20198;-73
2023/03/31 04:21:03;;;;;;;2.10;1.20;;;;;;;;;;5052665;28;20336;-73
2023/03/31 04:23:30;;;;;;;1.07;1.07;;;;;;;;;;5058503;28;20204;-72
2023/03/31 04:25:56;;;;;;;2.60;1.57;;;;;;;;;;5038609;28;20222;-73
2023/03/31 04:28:25;;;;;;;4.27;1.60;;;;;;;;;;5057581;28;20237;-73
2023/03/31 04:30:53;;;;;;;3.13;1.47;;;;;;;;;;5053661;28;20275;-73
2023/03/31 04:33:20;;;;;;;3.73;1.43;;;;;;;;;;5053900;28;20612;-73
2023/03/31 04:35:51;;;;;;;2.57;1.20;;;;;;;;;;5053813;28;20510;-73
2023/03/31 04:38:18;;;;;;;6.20;1.77;;;;;;;;;;5055191;28;20286;-73
2023/03/31 04:40:45;;;;;;;3.57;1.40;;;;;;;;;;5057672;28;20214;-74
2023/03/31 04:43:11;;;;;;;3.23;1.33;;;;;;;;;;5061555;28;20217;-73
2023/03/31 04:45:39;;;;;;;1.40;1.10;;;;;;;;;;5061977;28;20609;-73
2023/03/31 04:48:05;;;;;;;4.10;1.87;;;;;;;;;;5062707;28;20230;-74
2023/03/31 04:50:31;;;;;;;4.33;1.33;;;;;;;;;;5060572;28;20289;-73
2023/03/31 04:52:58;;;;;;;3.33;1.53;;;;;;;;;;5059296;28;20277;-73
2023/03/31 04:55:24;;;;;;;4.03;1.57;;;;;;;;;;5061844;28;20198;-73
2023/03/31 04:57:51;;;;;;;3.13;1.20;;;;;;;;;;5062262;28;20199;-74
2023/03/31 05:00:18;;;;;;;5.23;2.03;;;;;;;;;;5060192;28;20558;-74
2023/03/31 05:02:45;;;;;;;7.13;1.57;;;;;;;;;;5064750;28;20210;-73
2023/03/31 05:05:12;;;;;;;3.43;1.33;;;;;;;;;;5061617;28;20199;-74
2023/03/31 05:07:38;;;;;;;2.47;1.53;;;;;;;;;;5062696;28;20286;-73
2023/03/31 05:10:06;;;;;;;3.70;1.67;;;;;;;;;;5061535;28;20210;-74
2023/03/31 05:12:34;;;;;;;3.07;1.50;;;;;;;;;;5056513;28;20320;-73
2023/03/31 05:15:00;;;;;;;3.63;1.30;;;;;;;;;;5064473;28;20210;-74
2023/03/31 05:17:30;;;;;;;2.40;1.30;;;;;;;;;;5045718;28;20244;-73
2023/03/31 05:19:58;;;;;;;4.60;1.27;;;;;;;;;;5061792;28;20240;-73
2023/03/31 05:22:24;;;;;;;2.27;1.33;;;;;;;;;;5062422;28;21490;-74
2023/03/31 05:24:51;;;;;;;1.53;1.30;;;;;;;;;;5064012;28;20198;-73
2023/03/31 05:27:18;;;;;;;2.87;1.40;;;;;;;;;;5062699;28;20244;-73
2023/03/31 05:29:44;;;;;;;4.57;1.77;;;;;;;;;;5059332;28;20207;-73
2023/03/31 05:32:10;;;;;;;2.07;1.40;;;;;;;;;;5060330;28;20222;-73
2023/03/31 05:34:37;;;;;;;5.13;1.33;;;;;;;;;;5068319;28;20210;-73
2023/03/31 05:37:04;;;;;;;3.47;1.33;;;;;;;;;;5061008;28;20201;-73
2023/03/31 05:39:31;;;;;;;7.60;1.57;;;;;;;;;;5065651;28;20205;-73
2023/03/31 05:41:58;;;;;;;2.00;1.40;;;;;;;;;;5064415;28;20574;-74
2023/03/31 05:44:25;;;;;;;1.87;1.40;;;;;;;;;;5065895;28;20199;-74
2023/03/31 05:46:51;;;;;;;4.30;1.70;;;;;;;;;;5067185;28;20241;-74
2023/03/31 05:49:18;;;;;;;5.77;1.87;;;;;;;;;;5066606;28;20949;-73
2023/03/31 05:51:45;;;;;;;3.17;1.30;;;;;;;;;;5068535;28;20227;-73
2023/03/31 05:54:13;;;;;;;3.43;1.50;;;;;;;;;;5062776;28;20742;-73
2023/03/31 05:56:39;;;;;;;3.83;1.73;;;;;;;;;;5069575;28;20550;-74
2023/03/31 05:59:05;;;;;;;3.83;1.77;;;;;;;;;;5071315;28;20194;-73
2023/03/31 06:01:33;;;;;;;3.27;1.40;;;;;;;;;;5064993;28;20226;-74
2023/03/31 06:03:59;;;;;;;4.40;1.20;;;;;;;;;;5051505;28;20307;-74
2023/03/31 06:06:26;;;;;;;2.67;1.73;;;;;;;;;;5067807;28;20217;-73
2023/03/31 06:08:53;;;;;;;2.40;1.50;;;;;;;;;;5069395;28;20206;-74
2023/03/31 06:11:21;;;;;;;2.40;1.60;;;;;;;;;;5067732;28;20221;-74
2023/03/31 06:13:48;;;;;;;3.30;1.50;;;;;;;;;;5068819;28;20277;-74
2023/03/31 06:16:15;;;;;;;4.23;1.57;;;;;;;;;;5066613;28;20195;-74
2023/03/31 06:18:41;;;;;;;5.90;1.73;;;;;;;;;;5062409;28;20200;-74
2023/03/31 06:21:10;;;;;;;2.47;1.70;;;;;;;;;;5068647;28;20242;-74
2023/03/31 06:23:37;;;;;;;2.90;1.47;;;;;;;;;;5066871;28;20210;-74
2023/03/31 06:26:05;;;;;;;3.83;2.13;;;;;;;;;;5067313;28;20192;-74
2023/03/31 06:28:33;;;;;;;5.60;2.50;;;;;;;;;;5067810;28;20200;-74
2023/03/31 06:31:04;;;;;;;2.57;1.77;;;;;;;;;;5067386;28;20206;-74
2023/03/31 06:33:30;;;;;;;4.60;2.20;;;;;;;;;;5064749;28;20219;-74
2023/03/31 06:35:58;;;;;;;6.00;1.60;;;;;;;;;;5063641;28;20295;-74
2023/03/31 06:38:24;;;;;;;5.03;1.63;;;;;;;;;;5062778;28;20208;-73
2023/03/31 06:40:51;;;;;;;4.50;1.40;;;;;;;;;;5069199;28;20206;-74
2023/03/31 06:43:17;;;;;;;5.60;1.87;;;;;;;;;;5064214;28;20222;-74
2023/03/31 06:45:45;;;;;;;2.33;1.77;;;;;;;;;;5045946;28;20209;-74
2023/03/31 06:48:13;;;;;;;3.67;1.80;;;;;;;;;;5066736;28;20231;-74
2023/03/31 06:50:40;;;;;;;2.00;1.37;;;;;;;;;;5064493;28;20227;-74
2023/03/31 06:53:06;;;;;;;3.87;1.70;;;;;;;;;;5069121;28;20274;-73
2023/03/31 06:55:33;;;;;;;2.93;1.70;;;;;;;;;;5069387;28;20197;-73
2023/03/31 06:57:59;;;;;;;4.73;2.40;;;;;;;;;;5066983;28;20486;-74
2023/03/31 07:00:25;;;;;;;2.23;1.43;;;;;;;;;;5063694;28;20675;-74
2023/03/31 07:02:53;;;;;;;2.90;1.50;;;;;;;;;;5062693;28;20230;-73
2023/03/31 07:05:25;;;;;;;5.00;1.93;;;;;;;;;;5064413;28;20197;-73
2023/03/31 07:07:51;;;;;;;3.20;1.50;;;;;;;;;;5066439;28;20213;-73
2023/03/31 07:10:18;;;;;;;6.20;1.27;;;;;;;;;;5068261;28;20194;-74
2023/03/31 07:12:44;;;;;;;1.50;1.30;;;;;;;;;;5065995;28;20218;-73
2023/03/31 07:15:10;;;;;;;2.63;1.43;;;;;;;;;;5064620;28;20345;-74
2023/03/31 07:17:40;;;;;;;3.37;1.90;;;;;;;;;;5066610;28;20233;-74
2023/03/31 07:20:11;;;;;;;2.83;1.30;;;;;;;;;;5063941;28;20205;-73
2023/03/31 07:22:37;;;;;;;2.23;1.50;;;;;;;;;;5065888;28;20662;-74
2023/03/31 07:25:04;;;;;;;3.10;1.93;;;;;;;;;;5065839;28;20206;-74
2023/03/31 07:27:30;;;;;;;1.83;1.20;;;;;;;;;;5065097;28;20360;-73
2023/03/31 07:29:56;;;;;;;2.63;1.30;;;;;;;;;;5064385;28;20201;-74
2023/03/31 07:32:23;;;;;;;2.30;1.50;;;;;;;;;;5067234;28;20786;-74
2023/03/31 07:34:49;;;;;;;6.20;1.73;;;;;;;;;;5060640;28;20694;-74
2023/03/31 07:37:16;;;;;;;3.27;1.60;;;;;;;;;;5064592;28;20209;-74
2023/03/31 07:39:43;;;;;;;3.73;2.13;;;;;;;;;;5063304;28;20594;-74
2023/03/31 07:42:09;;;;;;;3.47;1.30;;;;;;;;;;5066650;28;20230;-73
2023/03/31 07:44:35;;;;;;;5.37;2.17;;;;;;;;;;5064009;28;20202;-73
2023/03/31 07:47:03;;;;;;;3.33;1.47;;;;;;;;;;5061268;28;20219;-74
2023/03/31 07:49:29;;;;;;;4.47;1.80;;;;;;;;;;5062555;28;20240;-73
2023/03/31 07:51:56;;;;;;;2.33;1.20;;;;;;;;;;5066712;28;20578;-73
2023/03/31 07:54:23;;;;;;;2.50;1.40;;;;;;;;;;5066004;28;20465;-74
2023/03/31 07:56:50;;;;;;;2.70;1.70;;;;;;;;;;5056790;28;20633;-73
2023/03/31 07:59:16;;;;;;;2.20;1.27;;;;;;;;;;5060963;28;20202;-74
2023/03/31 08:01:42;;;;;;;6.27;1.23;;;;;;;;;;5066872;28;20218;-74
2023/03/31 08:04:09;;;;;;;3.13;1.17;;;;;;;;;;5062870;28;20198;-73
2023/03/31 08:06:35;;;;;;;1.33;0.90;;;;;;;;;;5064270;28;20199;-73
2023/03/31 08:09:06;;;;;;;3.33;1.33;;;;;;;;;;5048655;28;20681;-74
2023/03/31 08:11:33;;;;;;;1.77;0.90;;;;;;;;;;5064569;28;20280;-74
2023/03/31 08:13:59;;;;;;;2.43;1.13;;;;;;;;;;5064332;28;20235;-74
2023/03/31 08:16:26;;;;;;;1.40;0.93;;;;;;;;;;5065328;28;20204;-74
2023/03/31 08:18:52;;;;;;;2.00;0.97;;;;;;;;;;5062186;28;20203;-74
2023/03/31 08:21:18;;;;;;;5.33;1.43;;;;;;;;;;5052333;28;20258;-74
2023/03/31 08:23:44;;;;;;;3.33;2.03;;;;;;;;;;5060183;28;20209;-74
2023/03/31 08:26:14;;;;;;;2.87;1.10;;;;;;;;;;5067059;28;20201;-74
2023/03/31 08:28:41;;;;;;;4.03;1.73;;;;;;;;;;5064489;28;20247;-74
2023/03/31 08:31:09;;;;;;;5.40;1.90;;;;;;;;;;5061269;28;20206;-74
2023/03/31 08:33:36;;;;;;;6.73;3.43;;;;;;;;;;5060089;28;20206;-74
2023/03/31 08:36:03;;;;;;;6.83;3.30;;;;;;;;;;5063771;28;20623;-74
2023/03/31 08:38:30;;;;;;;6.10;2.83;;;;;;;;;;5060512;28;20212;-74
2023/03/31 08:40:58;;;;;;;4.57;1.90;;;;;;;;;;5064868;28;20198;-74
2023/03/31 08:43:27;;;;;;;4.70;2.30;;;;;;;;;;5062219;28;20209;-74
2023/03/31 08:45:55;;;;;;;4.80;2.13;;;;;;;;;;5060791;28;20210;-73
2023/03/31 08:48:24;;;;;;;3.60;2.23;;;;;;;;;;5059927;28;20217;-74
2023/03/31 08:50:53;;;;;;;1.80;1.30;;;;;;;;;;5060916;28;20206;-73
2023/03/31 08:53:22;;;;;;;5.47;0.97;;;;;;;;;;5062549;28;20207;-74
2023/03/31 08:55:49;;;;;;;3.23;1.30;;;;;;;;;;5059384;28;20284;-73
2023/03/31 08:58:19;;;;;;;1.97;1.10;;;;;;;;;;5066149;28;20200;-73
2023/03/31 09:00:50;;;;;;;1.80;0.87;;;;;;;;;;5056205;28;20201;-74
2023/03/31 09:03:22;;;;;;;4.67;1.30;;;;;;;;;;5061397;28;20709;-74
2023/03/31 09:05:51;;;;;;;1.73;1.07;;;;;;;;;;5065801;28;20197;-73
2023/03/31 09:08:24;;;;;;;2.57;1.63;;;;;;;;;;5059875;28;20515;-74
2023/03/31 09:10:53;;;;;;;3.07;1.23;;;;;;;;;;5065761;28;20567;-74
2023/03/31 09:13:38;;;;;;;2.57;1.20;;;;;;;;;;5064005;28;20695;-74
2023/03/31 09:16:07;;;;;;;1.63;1.10;;;;;;;;;;5057103;28;20206;-74
2023/03/31 09:18:36;;;;;;;4.13;1.20;;;;;;;;;;5066728;28;21353;-75
2023/03/31 09:21:05;;;;;;;4.10;1.27;;;;;;;;;;5063511;28;20253;-73
2023/03/31 09:23:33;;;;;;;2.30;1.00;;;;;;;;;;5067898;28;20721;-73
2023/03/31 09:26:01;;;;;;;1.33;0.90;;;;;;;;;;5063629;28;20288;-74
2023/03/31 09:28:30;;;;;;;1.73;0.97;;;;;;;;;;5068120;28;20562;-74
2023/03/31 09:30:56;;;;;;;1.57;0.97;;;;;;;;;;5063642;28;20200;-73
2023/03/31 09:33:26;;;;;;;1.20;0.80;;;;;;;;;;5068333;28;20294;-74
2023/03/31 09:35:53;;;;;;;1.60;0.90;;;;;;;;;;5067677;28;20894;-74
2023/03/31 09:38:20;;;;;;;2.23;1.13;;;;;;;;;;5063909;28;20252;-73
2023/03/31 09:40:46;;;;;;;2.13;1.20;;;;;;;;;;5065516;28;20314;-73
2023/03/31 09:43:18;;;;;;;1.70;0.90;;;;;;;;;;5068141;28;20225;-73
2023/03/31 09:45:45;;;;;;;2.53;1.00;;;;;;;;;;5063029;28;20228;-74
2023/03/31 09:48:13;;;;;;;1.97;0.70;;;;;;;;;;5063320;28;20397;-73
2023/03/31 09:50:41;;;;;;;1.67;0.63;;;;;;;;;;5067871;28;20746;-73
2023/03/31 09:53:12;;;;;;;1.63;0.80;;;;;;;;;;5063123;28;20605;-74
2023/03/31 09:55:42;;;;;;;3.70;1.00;;;;;;;;;;5066216;28;20692;-73
2023/03/31 09:58:12;;;;;;;3.77;1.10;;;;;;;;;;5067250;28;20225;-74
2023/03/31 10:00:40;;;;;;;2.63;0.90;;;;;;;;;;5067580;28;20198;-74
2023/03/31 10:03:07;;;;;;;2.47;0.70;;;;;;;;;;5066847;28;20253;-71
2023/03/31 10:05:36;;;;;;;1.57;0.80;;;;;;;;;;5060935;28;20580;-72
2023/03/31 10:08:19;;;;;;;1.87;0.97;;;;;;;;;;5065530;28;20300;-71
2023/03/31 10:10:47;;;;;;;2.13;1.43;;;;;;;;;;5067642;28;20198;-74
2023/03/31 10:13:16;;;;;;;1.40;0.87;;;;;;;;;;5064514;28;20222;-74
2023/03/31 10:15:42;;;;;;;1.63;0.93;;;;;;;;;;5060012;28;20582;-73
2023/03/31 10:18:12;;;;;;;1.80;0.90;;;;;;;;;;5065766;28;20199;-74
2023/03/31 10:20:39;;;;;;;1.63;0.93;;;;;;;;;;5063812;28;20202;-74
2023/03/31 10:23:06;;;;;;;3.57;0.90;;;;;;;;;;5068006;28;20248;-74
2023/03/31 10:25:34;;;;;;;1.80;0.97;;;;;;;;;;5065731;28;20198;-74
2023/03/31 10:28:01;;;;;;;1.30;0.63;;;;;;;;;;5062077;28;20695;-74
2023/03/31 10:30:34;;;;;;;2.93;1.03;;;;;;;;;;5044962;28;20199;-74
2023/03/31 10:33:01;;;;;;;2.17;0.80;;;;;;;;;;5063911;28;20637;-74
2023/03/31 10:35:31;;;;;;;2.43;0.77;;;;;;;;;;5064580;28;20191;-74
2023/03/31 10:37:58;;;;;;;2.00;1.00;;;;;;;;;;5063044;28;20222;-74
2023/03/31 10:40:26;;;;;;;5.97;1.10;;;;;;;;;;5066840;28;20225;-74
2023/03/31 10:43:01;;;;;;;4.63;0.80;;;;;;;;;;5064783;28;20713;-74
2023/03/31 10:45:28;;;;;;;3.87;1.20;;;;;;;;;;5075759;22;20308;-69
2023/03/31 10:47:55;;;;;;;5.03;1.20;;;;;;;;;;5045535;28;20214;-70
2023/03/31 10:50:26;;;;;;;2.67;1.27;;;;;;;;;;5059814;28;20201;-71
2023/03/31 10:52:52;;;;;;;2.70;1.00;;;;;;;;;;5061768;28;20206;-70
2023/03/31 10:55:22;;;;;;;1.70;0.80;;;;;;;;;;5066161;28;20245;-71
2023/03/31 10:57:53;;;;;;;3.90;1.30;;;;;;;;;;5061858;28;20190;-69
2023/03/31 11:00:26;;;;;;;2.63;1.47;;;;;;;;;;5060917;28;20780;-69
2023/03/31 11:03:01;;;;;;;2.43;0.90;;;;;;;;;;5057913;28;20285;-71
2023/03/31 11:05:29;;;;;;;4.10;1.27;;;;;;;;;;5062762;28;20221;-72
2023/03/31 11:08:01;;;;;;;4.03;1.20;;;;;;;;;;5060015;28;20574;-72
2023/03/31 11:10:37;;;;;;;3.93;1.20;;;;;;;;;;5055560;28;20233;-71
2023/03/31 11:13:07;;;;;;;4.03;1.80;;;;;;;;;;5068841;28;20203;-69
2023/03/31 11:15:36;;;;;;;3.93;1.50;;;;;;;;;;5070880;28;20229;-71
2023/03/31 11:18:08;;;;;;;2.03;1.33;;;;;;;;;;5070469;28;20221;-71
2023/03/31 11:20:37;;;;;;;1.57;1.00;;;;;;;;;;5074168;28;20211;-70
2023/03/31 11:23:08;;;;;;;1.60;1.00;;;;;;;;;;5073283;28;20213;-71
2023/03/31 11:25:39;;;;;;;5.80;1.10;;;;;;;;;;5071794;28;20218;-70
2023/03/31 11:28:20;;;;;;;6.73;2.47;;;;;;;;;;5065848;28;20217;-67
2023/03/31 11:30:51;;;;;;;4.40;2.17;;;;;;;;;;5063928;28;20636;-71
2023/03/31 11:33:30;;;;;;;5.43;3.23;;;;;;;;;;5064712;28;20358;-68
2023/03/31 11:36:04;;;;;;;5.40;2.10;;;;;;;;;;5067883;28;20221;-70
2023/03/31 11:38:40;;;;;;;6.20;2.33;;;;;;;;;;5069996;28;20214;-67
2023/03/31 11:41:08;;;;;;;4.33;2.77;;;;;;;;;;5073469;28;20209;-69
2023/03/31 11:43:36;;;;;;;3.30;2.07;;;;;;;;;;5076828;28;20269;-68
2023/03/31 11:46:08;;;;;;;4.83;1.90;;;;;;;;;;5081145;28;20963;-69
2023/03/31 11:48:38;;;;;;;4.77;1.73;;;;;;;;;;5064450;28;20321;-68
2023/03/31 11:51:07;;;;;;;3.77;1.93;;;;;;;;;;5063127;28;21494;-71
2023/03/31 11:53:34;;;;;;;3.83;1.67;;;;;;;;;;5049305;28;20564;-71
2023/03/31 11:56:02;;;;;;;3.57;1.80;;;;;;;;;;5056814;28;20214;-69
2023/03/31 11:58:32;;;;;;;2.10;1.10;;;;;;;;;;5054781;28;20577;-70
2023/03/31 12:01:08;;;;;;;2.53;1.33;;;;;;;;;;5056526;28;20663;-71
2023/03/31 12:03:38;;;;;;;3.00;1.40;;;;;;;;;;5057830;28;20202;-69
2023/03/31 12:06:08;;;;;;;3.93;1.10;;;;;;;;;;5062110;28;20222;-72
2023/03/31 12:08:36;;;;;;;3.10;1.30;;;;;;;;;;5058965;28;20210;-71
2023/03/31 12:11:05;;;;;;;1.50;1.10;;;;;;;;;;5046472;28;20690;-71
2023/03/31 12:13:35;;;;;;;2.90;1.20;;;;;;;;;;5067054;28;20203;-71
2023/03/31 12:16:04;;;;;;;4.10;1.43;;;;;;;;;;5059917;28;20703;-72
2023/03/31 12:18:34;;;;;;;1.23;1.00;;;;;;;;;;5061538;28;20653;-71
2023/03/31 12:21:02;;;;;;;1.23;1.03;;;;;;;;;;5061575;28;20202;-70
2023/03/31 12:23:30;;;;;;;1.50;1.00;;;;;;;;;;5061261;28;20208;-70
2023/03/31 12:26:01;;;;;;;3.57;0.97;;;;;;;;;;5058272;28;20381;-70
2023/03/31 12:28:29;;;;;;;3.03;0.97;;;;;;;;;;5057800;28;20230;-71
2023/03/31 12:30:56;;;;;;;2.13;1.30;;;;;;;;;;5061034;28;20575;-71
2023/03/31 12:33:27;;;;;;;1.47;0.90;;;;;;;;;;5064960;28;20209;-72
2023/03/31 12:36:17;;;;;;;3.00;1.10;;;;;;;;;;5060425;28;20223;-71
2023/03/31 12:38:50;;;;;;;5.13;1.30;;;;;;;;;;5061572;28;20209;-72
2023/03/31 12:41:23;;;;;;;3.77;1.23;;;;;;;;;;5047611;28;20248;-70
2023/03/31 12:43:55;;;;;;;1.00;0.90;;;;;;;;;;5058841;28;20199;-71
2023/03/31 12:46:25;;;;;;;2.30;1.23;;;;;;;;;;5062559;28;20196;-72
2023/03/31 12:48:59;;;;;;;3.90;1.10;;;;;;;;;;5059078;28;20207;-72
2023/03/31 12:51:49;;;;;;;3.90;1.30;;;;;;;;;;5060448;28;20191;-72
2023/03/31 12:54:24;;;;;;;4.50;1.30;;;;;;;;;;5049066;28;20594;-72
2023/03/31 12:57:02;;;;;;;1.83;1.10;;;;;;;;;;5060347;28;20682;-72
2023/03/31 12:59:31;;;;;;;1.97;1.20;;;;;;;;;;5059534;28;20209;-71
2023/03/31 13:02:16;;;;;;;2.17;1.10;;;;;;;;;;5059314;28;20203;-72
2023/03/31 13:04:43;;;;;;;2.77;1.00;;;;;;;;;;5058358;28;20242;-72
2023/03/31 13:07:12;;;;;;;4.07;1.10;;;;;;;;;;5056436;28;20207;-72
2023/03/31 13:09:41;;;;;;;2.60;1.10;;;;;;;;;;5055866;28;21226;-72
2023/03/31 13:12:08;;;;;;;1.10;0.93;;;;;;;;;;5062161;28;20984;-72
2023/03/31 13:14:36;;;;;;;2.93;1.37;;;;;;;;;;5060768;28;20611;-69
2023/03/31 13:17:11;;;;;;;3.60;0.97;;;;;;;;;;5055926;28;20190;-72
2023/03/31 13:19:40;;;;;;;1.73;1.20;;;;;;;;;;5059201;28;20273;-71
2023/03/31 13:22:06;;;;;;;1.37;1.00;;;;;;;;;;5061338;28;20559;-72
2023/03/31 13:24:34;;;;;;;3.63;1.43;;;;;;;;;;5046465;28;20226;-70
2023/03/31 13:27:23;;;;;;;1.63;1.10;;;;;;;;;;5060275;28;20210;-71
2023/03/31 13:29:50;;;;;;;2.40;1.17;;;;;;;;;;5062561;28;20226;-72
2023/03/31 13:32:21;;;;;;;1.77;0.90;;;;;;;;;;5063155;28;20198;-72
2023/03/31 13:34:51;;;;;;;2.20;1.30;;;;;;;;;;5061690;28;20229;-72
2023/03/31 13:37:23;;;;;;;3.10;1.30;;;;;;;;;;5063467;28;20214;-72
2023/03/31 13:39:54;;;;;;;1.83;1.20;;;;;;;;;;5064325;28;20201;-72
2023/03/31 13:42:32;;;;;;;1.73;1.23;;;;;;;;;;5065455;28;20211;-72
2023/03/31 13:45:10;;;;;;;1.63;1.00;;;;;;;;;;5056436;28;20601;-71
2023/03/31 13:47:42;;;;;;;2.70;1.10;;;;;;;;;;5062073;28;20240;-71
2023/03/31 13:50:25;;;;;;;1.67;1.23;;;;;;;;;;5063718;28;20291;-72
2023/03/31 13:52:56;;;;;;;2.93;1.30;;;;;;;;;;5061948;28;20206;-71
2023/03/31 13:55:34;;;;;;;4.40;2.70;;;;;;;;;;5065719;28;20225;-72
2023/03/31 13:58:14;;;;;;;5.07;2.50;;;;;;;;;;5065175;28;20336;-72
2023/03/31 14:00:50;;;;;;;6.70;4.47;;;;;;;;;;5067932;28;20494;-72
2023/03/31 14:03:35;;;;;;;3.47;2.57;;;;;;;;;;5067217;28;20603;-72
2023/03/31 14:06:05;;;;;;;3.33;1.43;;;;;;;;;;5063746;28;20245;-71
2023/03/31 14:08:38;;;;;;;2.80;1.50;;;;;;;;;;5065972;28;20619;-71
2023/03/31 14:11:18;;;;;;;3.17;2.40;;;;;;;;;;5068308;28;20202;-72
2023/03/31 14:13:44;;;;;;;5.27;3.60;;;;;;;;;;5068359;28;20208;-71
2023/03/31 14:16:12;;;;;;;2.30;1.40;;;;;;;;;;5058909;28;20199;-72
2023/03/31 14:18:42;;;;;;;4.33;2.33;;;;;;;;;;5062700;28;20189;-72
2023/03/31 14:21:16;;;;;;;2.00;1.80;;;;;;;;;;5069485;28;20277;-71
2023/03/31 14:23:48;;;;;;;2.03;1.30;;;;;;;;;;5067490;28;20209;-72
2023/03/31 14:26:18;;;;;;;2.47;1.57;;;;;;;;;;5069032;28;20236;-71
2023/03/31 14:28:56;;;;;;;1.33;1.10;;;;;;;;;;5069149;28;20210;-70
2023/03/31 14:31:26;;;;;;;2.40;1.67;;;;;;;;;;5071165;28;20221;-71
2023/03/31 14:34:12;;;;;;;1.63;1.40;;;;;;;;;;5064008;28;20209;-70
2023/03/31 14:36:47;;;;;;;1.60;1.50;;;;;;;;;;5064714;28;20206;-70
2023/03/31 14:39:17;;;;;;;3.13;1.40;;;;;;;;;;5064561;28;20198;-71
2023/03/31 14:41:44;;;;;;;2.03;1.40;;;;;;;;;;5066609;28;20535;-71
2023/03/31 14:44:14;;;;;;;1.77;1.47;;;;;;;;;;5066231;28;20231;-71
2023/03/31 14:46:41;;;;;;;2.63;1.33;;;;;;;;;;5065012;28;20203;-70
2023/03/31 14:49:15;;;;;;;2.53;1.30;;;;;;;;;;5068112;28;20295;-70
2023/03/31 14:51:43;;;;;;;1.20;1.10;;;;;;;;;;5069500;28;20199;-70
2023/03/31 14:54:15;;;;;;;1.30;1.20;;;;;;;;;;5048412;28;20233;-71
2023/03/31 14:56:41;;;;;;;2.87;1.30;;;;;;;;;;5065111;28;20202;-71